sensor_id;sensor_type;location;lat;lon;timestamp;pressure;altitude;pressure_sealevel;temperature;humidity
13593;BME280;6867;50.998;4.250;2023-11-22T00:00:12;102503.75;;;5.29;100.00
13593;BME280;6867;50.998;4.250;2023-11-22T00:02:39;102490.63;;;5.16;100.00
13593;BME280;6867;50.998;4.250;2023-11-22T00:05:08;102490.88;;;5.13;100.00
13593;BME280;6867;50.998;4.250;2023-11-22T00:07:36;102483.06;;;5.00;100.00
13593;BME280;6867;50.998;4.250;2023-11-22T00:10:04;102484.00;;;5.10;100.00
13593;BME280;6867;50.998;4.250;2023-11-22T00:12:31;102490.22;;;5.20;100.00
13593;BME280;6867;50.998;4.250;2023-11-22T00:15:02;102487.97;;;5.16;100.00
13593;BME280;6867;50.998;4.250;2023-11-22T00:17:30;102486.78;;;5.09;100.00
13593;BME280;6867;50.998;4.250;2023-11-22T00:19:57;102496.34;;;5.11;100.00
13593;BME280;6867;50.998;4.250;2023-11-22T00:22:27;102488.00;;;5.05;100.00
13593;BME280;6867;50.998;4.250;2023-11-22T00:24:53;102485.59;;;5.02;100.00
13593;BME280;6867;50.998;4.250;2023-11-22T00:27:20;102474.38;;;4.98;100.00
13593;BME280;6867;50.998;4.250;2023-11-22T00:29:47;102470.41;;;4.92;100.00
13593;BME280;6867;50.998;4.250;2023-11-22T00:32:14;102464.22;;;4.92;100.00
13593;BME280;6867;50.998;4.250;2023-11-22T00:34:40;102468.31;;;4.96;100.00
13593;BME280;6867;50.998;4.250;2023-11-22T00:37:07;102466.78;;;4.93;100.00
13593;BME280;6867;50.998;4.250;2023-11-22T00:39:35;102468.72;;;4.91;100.00
13593;BME280;6867;50.998;4.250;2023-11-22T00:42:02;102466.31;;;4.88;100.00
13593;BME280;6867;50.998;4.250;2023-11-22T00:44:29;102461.31;;;4.74;100.00
13593;BME280;6867;50.998;4.250;2023-11-22T00:46:56;102461.47;;;4.61;100.00
13593;BME280;6867;50.998;4.250;2023-11-22T00:49:22;102472.97;;;4.62;100.00
13593;BME280;6867;50.998;4.250;2023-11-22T00:51:49;102482.38;;;4.66;100.00
13593;BME280;6867;50.998;4.250;2023-11-22T00:54:17;102484.84;;;4.58;100.00
13593;BME280;6867;50.998;4.250;2023-11-22T00:56:46;102491.38;;;4.54;100.00
13593;BME280;6867;50.998;4.250;2023-11-22T00:59:14;102489.94;;;4.49;100.00
13593;BME280;6867;50.998;4.250;2023-11-22T01:01:40;102494.91;;;4.43;100.00
13593;BME280;6867;50.998;4.250;2023-11-22T01:04:07;102497.78;;;4.51;100.00
13593;BME280;6867;50.998;4.250;2023-11-22T01:06:34;102494.44;;;4.49;100.00
13593;BME280;6867;50.998;4.250;2023-11-22T01:09:02;102493.38;;;4.40;100.00
13593;BME280;6867;50.998;4.250;2023-11-22T01:11:29;102501.56;;;4.48;100.00
13593;BME280;6867;50.998;4.250;2023-11-22T01:13:57;102502.19;;;4.41;100.00
13593;BME280;6867;50.998;4.250;2023-11-22T01:16:23;102508.25;;;4.32;100.00
13593;BME280;6867;50.998;4.250;2023-11-22T01:18:50;102498.25;;;4.24;100.00
13593;BME280;6867;50.998;4.250;2023-11-22T01:21:18;102501.75;;;4.13;100.00
13593;BME280;6867;50.998;4.250;2023-11-22T01:23:44;102515.31;;;4.10;100.00
13593;BME280;6867;50.998;4.250;2023-11-22T01:26:11;102506.50;;;3.98;100.00
13593;BME280;6867;50.998;4.250;2023-11-22T01:28:38;102516.03;;;4.01;100.00
13593;BME280;6867;50.998;4.250;2023-11-22T01:31:12;102518.81;;;3.99;100.00
13593;BME280;6867;50.998;4.250;2023-11-22T01:33:39;102525.00;;;3.89;100.00
13593;BME280;6867;50.998;4.250;2023-11-22T01:36:06;102523.41;;;3.86;100.00
13593;BME280;6867;50.998;4.250;2023-11-22T01:38:33;102534.28;;;3.83;100.00
13593;BME280;6867;50.998;4.250;2023-11-22T01:41:00;102540.44;;;3.84;100.00
13593;BME280;6867;50.998;4.250;2023-11-22T01:43:27;102541.56;;;3.81;100.00
13593;BME280;6867;50.998;4.250;2023-11-22T01:45:54;102548.41;;;3.84;100.00
13593;BME280;6867;50.998;4.250;2023-11-22T01:48:22;102555.56;;;3.83;100.00
13593;BME280;6867;50.998;4.250;2023-11-22T01:50:49;102552.66;;;3.75;100.00
13593;BME280;6867;50.998;4.250;2023-11-22T01:53:16;102550.22;;;3.72;100.00
13593;BME280;6867;50.998;4.250;2023-11-22T01:55:44;102551.44;;;3.68;100.00
13593;BME280;6867;50.998;4.250;2023-11-22T01:58:12;102555.41;;;3.62;100.00
13593;BME280;6867;50.998;4.250;2023-11-22T02:00:44;102550.59;;;3.56;100.00
13593;BME280;6867;50.998;4.250;2023-11-22T02:03:11;102542.94;;;3.40;100.00
13593;BME280;6867;50.998;4.250;2023-11-22T02:05:41;102542.31;;;3.37;100.00
13593;BME280;6867;50.998;4.250;2023-11-22T02:08:09;102540.88;;;3.33;100.00
13593;BME280;6867;50.998;4.250;2023-11-22T02:10:35;102541.94;;;3.30;100.00
13593;BME280;6867;50.998;4.250;2023-11-22T02:13:03;102545.47;;;3.31;100.00
13593;BME280;6867;50.998;4.250;2023-11-22T02:15:30;102550.38;;;3.24;100.00
13593;BME280;6867;50.998;4.250;2023-11-22T02:17:57;102555.19;;;3.19;100.00
13593;BME280;6867;50.998;4.250;2023-11-22T02:20:24;102559.41;;;3.10;100.00
13593;BME280;6867;50.998;4.250;2023-11-22T02:22:52;102552.50;;;3.08;100.00
13593;BME280;6867;50.998;4.250;2023-11-22T02:25:20;102553.34;;;3.08;100.00
13593;BME280;6867;50.998;4.250;2023-11-22T02:27:47;102555.50;;;3.03;100.00
13593;BME280;6867;50.998;4.250;2023-11-22T02:30:14;102556.97;;;3.07;100.00
13593;BME280;6867;50.998;4.250;2023-11-22T02:32:41;102560.47;;;3.08;100.00
13593;BME280;6867;50.998;4.250;2023-11-22T02:35:09;102555.38;;;3.05;100.00
13593;BME280;6867;50.998;4.250;2023-11-22T02:37:35;102560.69;;;3.05;100.00
13593;BME280;6867;50.998;4.250;2023-11-22T02:40:06;102559.75;;;3.06;100.00
13593;BME280;6867;50.998;4.250;2023-11-22T02:42:40;102559.63;;;3.07;100.00
13593;BME280;6867;50.998;4.250;2023-11-22T02:45:07;102568.44;;;3.08;100.00
13593;BME280;6867;50.998;4.250;2023-11-22T02:47:34;102565.28;;;3.03;100.00
13593;BME280;6867;50.998;4.250;2023-11-22T02:50:02;102581.66;;;2.96;100.00
13593;BME280;6867;50.998;4.250;2023-11-22T02:52:30;102582.22;;;2.89;100.00
13593;BME280;6867;50.998;4.250;2023-11-22T02:54:57;102583.97;;;2.77;100.00
13593;BME280;6867;50.998;4.250;2023-11-22T02:57:24;102584.41;;;2.71;100.00
13593;BME280;6867;50.998;4.250;2023-11-22T02:59:52;102587.69;;;2.74;100.00
13593;BME280;6867;50.998;4.250;2023-11-22T03:02:19;102588.78;;;2.72;100.00
13593;BME280;6867;50.998;4.250;2023-11-22T03:04:46;102581.75;;;2.71;100.00
13593;BME280;6867;50.998;4.250;2023-11-22T03:07:12;102567.97;;;2.66;100.00
13593;BME280;6867;50.998;4.250;2023-11-22T03:09:40;102571.59;;;2.65;100.00
13593;BME280;6867;50.998;4.250;2023-11-22T03:12:09;102571.69;;;2.63;100.00
13593;BME280;6867;50.998;4.250;2023-11-22T03:14:38;102566.63;;;2.60;100.00
13593;BME280;6867;50.998;4.250;2023-11-22T03:17:06;102569.38;;;2.59;100.00
13593;BME280;6867;50.998;4.250;2023-11-22T03:19:33;102573.22;;;2.55;100.00
13593;BME280;6867;50.998;4.250;2023-11-22T03:22:00;102581.19;;;2.55;100.00
13593;BME280;6867;50.998;4.250;2023-11-22T03:24:28;102582.13;;;2.54;100.00
13593;BME280;6867;50.998;4.250;2023-11-22T03:26:55;102568.03;;;2.53;100.00
13593;BME280;6867;50.998;4.250;2023-11-22T03:29:24;102570.56;;;2.55;100.00
13593;BME280;6867;50.998;4.250;2023-11-22T03:31:51;102576.13;;;2.52;100.00
13593;BME280;6867;50.998;4.250;2023-11-22T03:34:20;102575.03;;;2.54;100.00
13593;BME280;6867;50.998;4.250;2023-11-22T03:36:47;102587.56;;;2.52;100.00
13593;BME280;6867;50.998;4.250;2023-11-22T03:39:15;102590.09;;;2.54;100.00
13593;BME280;6867;50.998;4.250;2023-11-22T03:41:41;102593.28;;;2.46;100.00
13593;BME280;6867;50.998;4.250;2023-11-22T03:44:08;102597.97;;;2.42;100.00
13593;BME280;6867;50.998;4.250;2023-11-22T03:46:35;102600.63;;;2.42;100.00
13593;BME280;6867;50.998;4.250;2023-11-22T03:49:02;102600.63;;;2.42;100.00
13593;BME280;6867;50.998;4.250;2023-11-22T03:51:30;102609.97;;;2.48;100.00
13593;BME280;6867;50.998;4.250;2023-11-22T03:53:57;102613.69;;;2.45;100.00
13593;BME280;6867;50.998;4.250;2023-11-22T03:56:24;102614.44;;;2.47;100.00
13593;BME280;6867;50.998;4.250;2023-11-22T03:58:50;102615.16;;;2.49;100.00
13593;BME280;6867;50.998;4.250;2023-11-22T04:01:17;102622.38;;;2.47;100.00
13593;BME280;6867;50.998;4.250;2023-11-22T04:03:45;102613.69;;;2.45;100.00
13593;BME280;6867;50.998;4.250;2023-11-22T04:06:13;102626.22;;;2.43;100.00
13593;BME280;6867;50.998;4.250;2023-11-22T04:08:42;102634.81;;;2.47;100.00
13593;BME280;6867;50.998;4.250;2023-11-22T04:11:09;102635.53;;;2.49;100.00
13593;BME280;6867;50.998;4.250;2023-11-22T04:13:36;102641.69;;;2.49;100.00
13593;BME280;6867;50.998;4.250;2023-11-22T04:16:03;102648.69;;;2.50;100.00
13593;BME280;6867;50.998;4.250;2023-11-22T04:18:32;102647.63;;;2.53;100.00
13593;BME280;6867;50.998;4.250;2023-11-22T04:20:59;102652.09;;;2.53;100.00
13593;BME280;6867;50.998;4.250;2023-11-22T04:23:26;102657.91;;;2.58;100.00
13593;BME280;6867;50.998;4.250;2023-11-22T04:25:54;102663.72;;;2.63;100.00
13593;BME280;6867;50.998;4.250;2023-11-22T04:28:21;102669.44;;;2.69;100.00
13593;BME280;6867;50.998;4.250;2023-11-22T04:30:47;102682.06;;;2.79;100.00
13593;BME280;6867;50.998;4.250;2023-11-22T04:33:14;102680.66;;;2.86;100.00
13593;BME280;6867;50.998;4.250;2023-11-22T04:35:40;102696.25;;;2.90;100.00
13593;BME280;6867;50.998;4.250;2023-11-22T04:38:07;102692.75;;;2.90;100.00
13593;BME280;6867;50.998;4.250;2023-11-22T04:40:34;102689.47;;;2.86;100.00
13593;BME280;6867;50.998;4.250;2023-11-22T04:43:02;102705.91;;;2.91;100.00
13593;BME280;6867;50.998;4.250;2023-11-22T04:45:29;102696.25;;;2.90;100.00
13593;BME280;6867;50.998;4.250;2023-11-22T04:47:55;102701.66;;;3.02;100.00
13593;BME280;6867;50.998;4.250;2023-11-22T04:50:22;102705.03;;;3.04;100.00
13593;BME280;6867;50.998;4.250;2023-11-22T04:52:50;102707.34;;;3.08;100.00
13593;BME280;6867;50.998;4.250;2023-11-22T04:55:17;102709.16;;;3.08;100.00
13593;BME280;6867;50.998;4.250;2023-11-22T04:57:44;102707.47;;;3.07;100.00
13593;BME280;6867;50.998;4.250;2023-11-22T05:00:13;102705.53;;;3.09;100.00
13593;BME280;6867;50.998;4.250;2023-11-22T05:02:40;102712.31;;;3.13;100.00
13593;BME280;6867;50.998;4.250;2023-11-22T05:05:07;102707.75;;;3.15;100.00
13593;BME280;6867;50.998;4.250;2023-11-22T05:07:35;102707.28;;;3.21;100.00
13593;BME280;6867;50.998;4.250;2023-11-22T05:10:02;102708.06;;;3.23;100.00
13593;BME280;6867;50.998;4.250;2023-11-22T05:12:29;102707.63;;;3.16;100.00
13593;BME280;6867;50.998;4.250;2023-11-22T05:14:56;102711.97;;;3.17;100.00
13593;BME280;6867;50.998;4.250;2023-11-22T05:17:24;102713.56;;;3.20;100.00
13593;BME280;6867;50.998;4.250;2023-11-22T05:19:51;102711.88;;;3.19;100.00
13593;BME280;6867;50.998;4.250;2023-11-22T05:22:17;102705.19;;;3.13;100.00
13593;BME280;6867;50.998;4.250;2023-11-22T05:24:44;102707.25;;;3.10;100.00
13593;BME280;6867;50.998;4.250;2023-11-22T05:27:11;102708.09;;;3.10;100.00
13593;BME280;6867;50.998;4.250;2023-11-22T05:29:38;102704.47;;;3.11;100.00
13593;BME280;6867;50.998;4.250;2023-11-22T05:32:05;102705.19;;;3.13;100.00
13593;BME280;6867;50.998;4.250;2023-11-22T05:34:34;102708.19;;;3.09;100.00
13593;BME280;6867;50.998;4.250;2023-11-22T05:37:00;102703.63;;;3.11;100.00
13593;BME280;6867;50.998;4.250;2023-11-22T05:39:27;102699.16;;;3.11;100.00
13593;BME280;6867;50.998;4.250;2023-11-22T05:41:54;102702.88;;;3.09;100.00
13593;BME280;6867;50.998;4.250;2023-11-22T05:44:22;102710.63;;;3.12;100.00
13593;BME280;6867;50.998;4.250;2023-11-22T05:46:50;102701.06;;;3.22;100.00
13593;BME280;6867;50.998;4.250;2023-11-22T05:49:17;102705.41;;;3.23;100.00
13593;BME280;6867;50.998;4.250;2023-11-22T05:51:45;102710.38;;;3.28;100.00
13593;BME280;6867;50.998;4.250;2023-11-22T05:54:12;102706.22;;;3.23;100.00
13593;BME280;6867;50.998;4.250;2023-11-22T05:56:41;102692.13;;;3.23;100.00
13593;BME280;6867;50.998;4.250;2023-11-22T05:59:08;102687.78;;;3.22;100.00
13593;BME280;6867;50.998;4.250;2023-11-22T06:01:35;102681.72;;;3.20;100.00
13593;BME280;6867;50.998;4.250;2023-11-22T06:04:01;102683.72;;;3.16;100.00
13593;BME280;6867;50.998;4.250;2023-11-22T06:06:28;102685.84;;;3.24;100.00
13593;BME280;6867;50.998;4.250;2023-11-22T06:08:56;102693.81;;;3.24;100.00
13593;BME280;6867;50.998;4.250;2023-11-22T06:11:23;102696.78;;;3.19;100.00
13593;BME280;6867;50.998;4.250;2023-11-22T06:13:50;102705.91;;;3.28;100.00
13593;BME280;6867;50.998;4.250;2023-11-22T06:16:17;102715.34;;;3.32;100.00
13593;BME280;6867;50.998;4.250;2023-11-22T06:18:44;102714.50;;;3.32;100.00
13593;BME280;6867;50.998;4.250;2023-11-22T06:21:10;102716.81;;;3.36;100.00
13593;BME280;6867;50.998;4.250;2023-11-22T06:23:37;102732.41;;;3.41;100.00
13593;BME280;6867;50.998;4.250;2023-11-22T06:26:05;102734.09;;;3.42;100.00
13593;BME280;6867;50.998;4.250;2023-11-22T06:28:32;102726.47;;;3.37;100.00
13593;BME280;6867;50.998;4.250;2023-11-22T06:31:00;102734.22;;;3.40;100.00
13593;BME280;6867;50.998;4.250;2023-11-22T06:33:26;102736.38;;;3.35;100.00
13593;BME280;6867;50.998;4.250;2023-11-22T06:35:53;102735.53;;;3.35;100.00
13593;BME280;6867;50.998;4.250;2023-11-22T06:38:20;102742.06;;;3.42;100.00
13593;BME280;6867;50.998;4.250;2023-11-22T06:40:46;102728.78;;;3.42;100.00
13593;BME280;6867;50.998;4.250;2023-11-22T06:43:14;102742.53;;;3.60;100.00
13593;BME280;6867;50.998;4.250;2023-11-22T06:45:41;102760.66;;;3.66;100.00
13593;BME280;6867;50.998;4.250;2023-11-22T06:48:08;102771.94;;;3.69;100.00
13593;BME280;6867;50.998;4.250;2023-11-22T06:50:35;102770.25;;;3.68;100.00
13593;BME280;6867;50.998;4.250;2023-11-22T06:53:01;102753.94;;;3.73;100.00
13593;BME280;6867;50.998;4.250;2023-11-22T06:55:28;102754.44;;;3.78;100.00
13593;BME280;6867;50.998;4.250;2023-11-22T06:57:56;102757.50;;;3.85;100.00
13593;BME280;6867;50.998;4.250;2023-11-22T07:00:24;102750.50;;;3.95;100.00
13593;BME280;6867;50.998;4.250;2023-11-22T07:02:54;102752.09;;;3.97;100.00
13593;BME280;6867;50.998;4.250;2023-11-22T07:05:21;102738.69;;;3.99;100.00
13593;BME280;6867;50.998;4.250;2023-11-22T07:07:49;102746.69;;;4.10;100.00
13593;BME280;6867;50.998;4.250;2023-11-22T07:10:16;102738.72;;;4.10;100.00
13593;BME280;6867;50.998;4.250;2023-11-22T07:12:46;102747.44;;;4.23;100.00
13593;BME280;6867;50.998;4.250;2023-11-22T07:15:13;102744.19;;;4.42;100.00
13593;BME280;6867;50.998;4.250;2023-11-22T07:17:41;102731.03;;;4.52;100.00
13593;BME280;6867;50.998;4.250;2023-11-22T07:20:08;102729.94;;;4.55;100.00
13593;BME280;6867;50.998;4.250;2023-11-22T07:22:41;102733.31;;;4.45;100.00
13593;BME280;6867;50.998;4.250;2023-11-22T07:25:08;102735.63;;;4.50;100.00
13593;BME280;6867;50.998;4.250;2023-11-22T07:27:43;102730.22;;;4.52;100.00
13593;BME280;6867;50.998;4.250;2023-11-22T07:30:11;102746.66;;;4.57;100.00
13593;BME280;6867;50.998;4.250;2023-11-22T07:32:38;102741.34;;;4.57;100.00
13593;BME280;6867;50.998;4.250;2023-11-22T07:35:07;102736.09;;;4.55;100.00
13593;BME280;6867;50.998;4.250;2023-11-22T07:37:34;102754.16;;;4.74;100.00
13593;BME280;6867;50.998;4.250;2023-11-22T07:40:01;102774.97;;;4.91;100.00
13593;BME280;6867;50.998;4.250;2023-11-22T07:42:29;102775.56;;;4.95;100.00
13593;BME280;6867;50.998;4.250;2023-11-22T07:44:56;102775.34;;;4.87;100.00
13593;BME280;6867;50.998;4.250;2023-11-22T07:47:22;102776.78;;;5.02;100.00
13593;BME280;6867;50.998;4.250;2023-11-22T07:49:49;102782.97;;;5.03;100.00
13593;BME280;6867;50.998;4.250;2023-11-22T07:52:18;102778.25;;;4.95;100.00
13593;BME280;6867;50.998;4.250;2023-11-22T07:54:44;102782.97;;;5.03;100.00
13593;BME280;6867;50.998;4.250;2023-11-22T07:57:11;102783.69;;;5.16;100.00
13593;BME280;6867;50.998;4.250;2023-11-22T07:59:38;102800.38;;;5.18;100.00
13593;BME280;6867;50.998;4.250;2023-11-22T08:02:05;102794.47;;;5.14;100.00
13593;BME280;6867;50.998;4.250;2023-11-22T08:04:36;102807.16;;;5.22;100.00
13593;BME280;6867;50.998;4.250;2023-11-22T08:07:03;102813.69;;;5.18;100.00
13593;BME280;6867;50.998;4.250;2023-11-22T08:09:31;102820.22;;;5.14;100.00
13593;BME280;6867;50.998;4.250;2023-11-22T08:11:58;102826.78;;;5.43;100.00
13593;BME280;6867;50.998;4.250;2023-11-22T08:14:26;102827.34;;;5.47;100.00
13593;BME280;6867;50.998;4.250;2023-11-22T08:16:53;102832.81;;;5.57;100.00
13593;BME280;6867;50.998;4.250;2023-11-22T08:19:20;102838.13;;;5.45;100.00
13593;BME280;6867;50.998;4.250;2023-11-22T08:21:47;102849.13;;;5.63;100.00
13593;BME280;6867;50.998;4.250;2023-11-22T08:24:14;102850.69;;;5.77;100.00
13593;BME280;6867;50.998;4.250;2023-11-22T08:26:42;102854.91;;;5.80;100.00
13593;BME280;6867;50.998;4.250;2023-11-22T08:29:08;102853.31;;;5.99;100.00
13593;BME280;6867;50.998;4.250;2023-11-22T08:31:36;102857.06;;;5.97;100.00
13593;BME280;6867;50.998;4.250;2023-11-22T08:34:03;102857.69;;;6.21;100.00
13593;BME280;6867;50.998;4.250;2023-11-22T08:36:32;102858.63;;;6.11;100.00
13593;BME280;6867;50.998;4.250;2023-11-22T08:38:59;102851.94;;;6.05;100.00
13593;BME280;6867;50.998;4.250;2023-11-22T08:41:27;102852.47;;;5.88;100.00
13593;BME280;6867;50.998;4.250;2023-11-22T08:43:56;102844.59;;;5.86;100.00
13593;BME280;6867;50.998;4.250;2023-11-22T08:46:23;102821.53;;;5.53;100.00
13593;BME280;6867;50.998;4.250;2023-11-22T08:48:50;102830.94;;;5.68;100.00
13593;BME280;6867;50.998;4.250;2023-11-22T08:51:17;102841.66;;;6.01;100.00
13593;BME280;6867;50.998;4.250;2023-11-22T08:53:44;102845.06;;;6.03;100.00
13593;BME280;6867;50.998;4.250;2023-11-22T08:56:10;102852.59;;;5.86;100.00
13593;BME280;6867;50.998;4.250;2023-11-22T08:58:37;102858.63;;;5.88;100.00
13593;BME280;6867;50.998;4.250;2023-11-22T09:01:06;102870.59;;;5.73;100.00
13593;BME280;6867;50.998;4.250;2023-11-22T09:03:33;102871.19;;;5.65;100.00
13593;BME280;6867;50.998;4.250;2023-11-22T09:06:00;102875.31;;;5.47;100.00
13593;BME280;6867;50.998;4.250;2023-11-22T09:08:28;102882.66;;;5.88;100.00
13593;BME280;6867;50.998;4.250;2023-11-22T09:10:55;102880.81;;;5.89;100.00
13593;BME280;6867;50.998;4.250;2023-11-22T09:13:22;102878.97;;;6.12;100.00
13593;BME280;6867;50.998;4.250;2023-11-22T09:15:50;102875.72;;;6.40;100.00
13593;BME280;6867;50.998;4.250;2023-11-22T09:18:18;102875.97;;;6.37;100.00
13593;BME280;6867;50.998;4.250;2023-11-22T09:20:44;102883.81;;;6.39;100.00
13593;BME280;6867;50.998;4.250;2023-11-22T09:23:11;102884.63;;;6.51;100.00
13593;BME280;6867;50.998;4.250;2023-11-22T09:25:39;102876.34;;;6.33;100.00
13593;BME280;6867;50.998;4.250;2023-11-22T09:28:06;102874.16;;;6.27;100.00
13593;BME280;6867;50.998;4.250;2023-11-22T09:30:34;102878.41;;;6.29;100.00
13593;BME280;6867;50.998;4.250;2023-11-22T09:33:04;102885.66;;;6.59;100.00
13593;BME280;6867;50.998;4.250;2023-11-22T09:35:33;102894.84;;;6.87;100.00
13593;BME280;6867;50.998;4.250;2023-11-22T09:38:01;102872.41;;;6.48;100.00
13593;BME280;6867;50.998;4.250;2023-11-22T09:40:28;102881.91;;;6.62;100.00
13593;BME280;6867;50.998;4.250;2023-11-22T09:42:57;102875.38;;;6.34;100.00
13593;BME280;6867;50.998;4.250;2023-11-22T09:45:24;102878.50;;;6.60;100.00
13593;BME280;6867;50.998;4.250;2023-11-22T09:47:51;102889.38;;;6.68;100.00
13593;BME280;6867;50.998;4.250;2023-11-22T09:50:20;102886.31;;;6.52;100.00
13593;BME280;6867;50.998;4.250;2023-11-22T09:52:51;102880.59;;;6.03;100.00
13593;BME280;6867;50.998;4.250;2023-11-22T09:55:20;102882.78;;;5.98;100.00
13593;BME280;6867;50.998;4.250;2023-11-22T09:57:49;102890.47;;;6.23;100.00
13593;BME280;6867;50.998;4.250;2023-11-22T10:00:16;102884.38;;;6.21;100.00
13593;BME280;6867;50.998;4.250;2023-11-22T10:02:47;102876.00;;;6.26;100.00
13593;BME280;6867;50.998;4.250;2023-11-22T10:05:13;102891.25;;;6.35;100.00
13593;BME280;6867;50.998;4.250;2023-11-22T10:07:40;102895.25;;;6.62;100.00
13593;BME280;6867;50.998;4.250;2023-11-22T10:10:09;102890.38;;;6.67;100.00
13593;BME280;6867;50.998;4.250;2023-11-22T10:12:36;102904.69;;;6.87;100.00
13593;BME280;6867;50.998;4.250;2023-11-22T10:15:12;102898.38;;;6.67;100.00
13593;BME280;6867;50.998;4.250;2023-11-22T10:17:39;102892.59;;;6.62;100.00
13593;BME280;6867;50.998;4.250;2023-11-22T10:20:07;102889.56;;;6.55;100.00
13593;BME280;6867;50.998;4.250;2023-11-22T10:22:46;102895.75;;;6.97;100.00
13593;BME280;6867;50.998;4.250;2023-11-22T10:25:15;102885.84;;;6.88;100.00
13593;BME280;6867;50.998;4.250;2023-11-22T10:27:45;102877.53;;;6.61;100.00
13593;BME280;6867;50.998;4.250;2023-11-22T10:30:12;102884.22;;;6.97;100.00
13593;BME280;6867;50.998;4.250;2023-11-22T10:32:41;102888.03;;;7.25;100.00
13593;BME280;6867;50.998;4.250;2023-11-22T10:35:08;102881.47;;;7.08;100.00
13593;BME280;6867;50.998;4.250;2023-11-22T10:37:35;102883.03;;;7.11;100.00
13593;BME280;6867;50.998;4.250;2023-11-22T10:40:02;102880.25;;;7.22;100.00
13593;BME280;6867;50.998;4.250;2023-11-22T10:42:33;102869.97;;;6.87;100.00
13593;BME280;6867;50.998;4.250;2023-11-22T10:45:00;102882.91;;;7.12;100.00
13593;BME280;6867;50.998;4.250;2023-11-22T10:47:29;102879.50;;;7.10;100.00
13593;BME280;6867;50.998;4.250;2023-11-22T10:49:56;102873.19;;;7.11;98.78
13593;BME280;6867;50.998;4.250;2023-11-22T10:52:27;102879.16;;;7.24;99.56
13593;BME280;6867;50.998;4.250;2023-11-22T10:54:59;102869.38;;;7.14;98.82
13593;BME280;6867;50.998;4.250;2023-11-22T10:57:33;102876.97;;;7.09;99.30
13593;BME280;6867;50.998;4.250;2023-11-22T11:00:04;102881.69;;;7.26;99.61
13593;BME280;6867;50.998;4.250;2023-11-22T11:02:37;102873.78;;;7.15;99.77
13593;BME280;6867;50.998;4.250;2023-11-22T11:05:11;102865.38;;;7.29;99.85
13593;BME280;6867;50.998;4.250;2023-11-22T11:07:47;102853.28;;;7.35;98.42
13593;BME280;6867;50.998;4.250;2023-11-22T11:10:15;102836.00;;;7.39;98.03
13593;BME280;6867;50.998;4.250;2023-11-22T11:12:45;102817.78;;;7.83;98.55
13593;BME280;6867;50.998;4.250;2023-11-22T11:15:12;102827.38;;;8.05;99.55
13593;BME280;6867;50.998;4.250;2023-11-22T11:17:40;102817.50;;;7.86;97.96
13593;BME280;6867;50.998;4.250;2023-11-22T11:20:07;102823.28;;;8.10;97.16
13593;BME280;6867;50.998;4.250;2023-11-22T11:22:38;102813.72;;;8.37;96.88
13593;BME280;6867;50.998;4.250;2023-11-22T11:25:06;102810.03;;;8.28;96.17
13593;BME280;6867;50.998;4.250;2023-11-22T11:27:33;102810.47;;;8.43;95.85
13593;BME280;6867;50.998;4.250;2023-11-22T11:33:04;102812.88;;;8.17;94.86
13593;BME280;6867;50.998;4.250;2023-11-22T11:35:37;102799.19;;;7.81;93.53
13593;BME280;6867;50.998;4.250;2023-11-22T11:38:04;102817.38;;;7.87;95.04
13593;BME280;6867;50.998;4.250;2023-11-22T11:40:34;102825.13;;;8.10;94.39
13593;BME280;6867;50.998;4.250;2023-11-22T11:43:02;102824.09;;;7.72;94.45
13593;BME280;6867;50.998;4.250;2023-11-22T11:45:37;102818.75;;;8.11;94.89
13593;BME280;6867;50.998;4.250;2023-11-22T11:48:05;102804.22;;;7.65;93.80
13593;BME280;6867;50.998;4.250;2023-11-22T11:50:32;102801.44;;;8.15;94.63
13593;BME280;6867;50.998;4.250;2023-11-22T11:52:58;102805.38;;;8.50;93.87
13593;BME280;6867;50.998;4.250;2023-11-22T11:55:26;102811.13;;;9.02;93.21
13593;BME280;6867;50.998;4.250;2023-11-22T11:57:53;102797.88;;;9.28;91.39
13593;BME280;6867;50.998;4.250;2023-11-22T12:00:20;102794.50;;;9.71;91.03
13593;BME280;6867;50.998;4.250;2023-11-22T12:02:50;102784.34;;;9.29;89.36
13593;BME280;6867;50.998;4.250;2023-11-22T12:05:20;102806.84;;;9.64;89.27
13593;BME280;6867;50.998;4.250;2023-11-22T12:07:47;102792.97;;;9.23;88.61
13593;BME280;6867;50.998;4.250;2023-11-22T12:10:14;102796.84;;;9.38;89.18
13593;BME280;6867;50.998;4.250;2023-11-22T12:12:43;102786.53;;;9.16;88.05
13593;BME280;6867;50.998;4.250;2023-11-22T12:15:12;102777.66;;;9.06;87.21
13593;BME280;6867;50.998;4.250;2023-11-22T12:17:40;102784.44;;;9.37;87.89
13593;BME280;6867;50.998;4.250;2023-11-22T12:20:15;102778.03;;;9.66;86.73
13593;BME280;6867;50.998;4.250;2023-11-22T12:22:43;102767.97;;;9.50;86.21
13593;BME280;6867;50.998;4.250;2023-11-22T12:25:10;102765.31;;;9.22;86.21
13593;BME280;6867;50.998;4.250;2023-11-22T12:27:41;102774.34;;;9.21;86.71
13593;BME280;6867;50.998;4.250;2023-11-22T12:30:16;102762.72;;;8.76;86.95
13593;BME280;6867;50.998;4.250;2023-11-22T12:32:54;102765.56;;;9.02;86.90
13593;BME280;6867;50.998;4.250;2023-11-22T12:35:22;102761.69;;;8.86;86.45
13593;BME280;6867;50.998;4.250;2023-11-22T12:37:49;102760.81;;;8.58;87.01
13593;BME280;6867;50.998;4.250;2023-11-22T12:40:16;102766.41;;;8.75;87.10
13593;BME280;6867;50.998;4.250;2023-11-22T12:42:50;102774.22;;;8.95;87.19
13593;BME280;6867;50.998;4.250;2023-11-22T12:45:21;102751.94;;;8.85;85.71
13593;BME280;6867;50.998;4.250;2023-11-22T12:47:49;102748.25;;;8.96;85.86
13593;BME280;6867;50.998;4.250;2023-11-22T12:50:36;102743.63;;;8.88;86.25
13593;BME280;6867;50.998;4.250;2023-11-22T12:53:14;102740.38;;;8.85;86.03
13593;BME280;6867;50.998;4.250;2023-11-22T12:55:44;102744.13;;;8.74;85.92
13593;BME280;6867;50.998;4.250;2023-11-22T12:58:12;102748.81;;;8.62;85.64
13593;BME280;6867;50.998;4.250;2023-11-22T13:00:39;102747.53;;;8.66;85.87
13593;BME280;6867;50.998;4.250;2023-11-22T13:03:06;102746.22;;;8.23;86.61
13593;BME280;6867;50.998;4.250;2023-11-22T13:05:33;102753.25;;;8.24;86.90
13593;BME280;6867;50.998;4.250;2023-11-22T13:08:01;102736.91;;;8.37;87.53